Main page
METAR-TAF:

METAR-TAF

Airports :

Current weather observation

The report was made 1 hour and 5 minutes ago, at 07:00 UTC
Wind 9 kt from the Northwest, varying between West and North/Northwest
Temperature 27°C
Humidity 66%
Pressure 1021 hPa
Visibility: 9000 m

METAR: OTBD 040700Z 31009KT 280V340 9000 NSC 27/20 Q1021 NOSIG

Time: 08:05 (08:05 UTC)

Forecast

The report was made 3 hours and 5 minutes ago, at 05:00 UTC
Forecast valid from 04 at 06 UTC to 05 at 12 UTC
Wind 12 kt from the Northwest
Visibility 10 km or more
no clouds below 1500 m and no cumulonimbus
Temporary
from 04 at 06 UTC to 04 at 14 UTC
Wind 15 kt from the North/Northwest with gusts up to 25 kt
Visibility: 7000 m
Probability 30% :
Temporary
from 04 at 08 UTC to 04 at 12 UTC
Visibility: 4000 m
Blowing dust

TAF: OTBD 040500Z 0406/0512 32012KT CAVOK TEMPO 0406/0414 33015G25KT 7000 NSC PROB30 TEMPO 0408/0412 4000 BLDU

Weather observations and forecasts of more than 4000 airports (METAR and TAF reports).

The available stations are represented by yellow and red dots on the map.

Hover mouse over dot to see the name of the station.

Then click to see weather observations and forecasts.

To change the map : click on the green buttons with a black cross to zoom in, on the green button with a dash to zoom out, or on the green arrows for adjacent maps.


METAR-TAF: